Time;durP1;ratioP1;P1;durP2;ratioP2;P2;SDS_P1;SDS_P2;PMS_P1;PMS_P2;Temp;Humidity;BMP_temperature;BMP_pressure;BME280_temperature;BME280_humidity;BME280_pressure;Samples;Min_cycle;Max_cycle;Signal;HPM_P1;HPM_P2
2023/03/12 00:01:42;;;;;;;16.73;8.52;;;4.70;99.90;;;;;;4981647;28;20083;-70
2023/03/12 00:04:07;;;;;;;18.33;10.57;;;4.80;99.90;;;;;;4980915;28;20022;-71
2023/03/12 00:06:33;;;;;;;18.20;8.82;;;4.80;99.90;;;;;;4981117;28;20059;-71
2023/03/12 00:09:00;;;;;;;19.60;9.85;;;4.80;99.90;;;;;;4980077;28;20062;-70
2023/03/12 00:11:27;;;;;;;15.18;8.80;;;4.80;99.90;;;;;;4981039;28;20081;-70
2023/03/12 00:13:55;;;;;;;12.88;7.93;;;4.80;99.90;;;;;;4980614;28;20035;-70
2023/03/12 00:16:22;;;;;;;14.40;8.25;;;4.80;99.90;;;;;;5005590;28;20023;-70
2023/03/12 00:18:51;;;;;;;18.88;9.15;;;4.80;99.90;;;;;;4981264;28;20051;-70
2023/03/12 00:21:17;;;;;;;16.83;8.38;;;4.70;99.90;;;;;;4994923;28;20110;-70
2023/03/12 00:23:43;;;;;;;14.82;9.43;;;4.70;99.90;;;;;;4983959;28;20037;-70
2023/03/12 00:26:11;;;;;;;14.63;8.77;;;4.70;99.90;;;;;;4988171;28;20031;-70
2023/03/12 00:28:37;;;;;;;16.10;10.32;;;4.60;99.90;;;;;;4990182;28;20546;-70
2023/03/12 00:31:13;;;;;;;15.40;9.98;;;4.60;99.90;;;;;;4989801;28;20031;-70
2023/03/12 00:33:39;;;;;;;16.85;9.30;;;4.60;99.90;;;;;;4989691;28;20052;-70
2023/03/12 00:36:05;;;;;;;16.58;9.90;;;4.70;99.90;;;;;;4989135;28;20632;-70
2023/03/12 00:38:31;;;;;;;19.38;9.85;;;4.70;99.90;;;;;;4990691;28;20560;-70
2023/03/12 00:40:57;;;;;;;15.88;9.43;;;4.70;99.90;;;;;;4989023;28;20066;-70
2023/03/12 00:43:22;;;;;;;16.75;9.20;;;4.80;99.90;;;;;;4990626;28;20029;-70
2023/03/12 00:45:48;;;;;;;14.07;9.40;;;4.70;99.90;;;;;;4990516;28;20387;-70
2023/03/12 00:48:14;;;;;;;16.50;8.52;;;4.70;99.90;;;;;;4989823;28;20118;-70
2023/03/12 00:50:39;;;;;;;14.27;8.70;;;4.70;99.90;;;;;;4990834;28;20088;-70
2023/03/12 00:53:05;;;;;;;14.38;9.07;;;4.70;99.90;;;;;;4990384;28;20502;-70
2023/03/12 00:55:31;;;;;;;18.48;9.90;;;4.70;99.90;;;;;;4989935;28;20023;-71
2023/03/12 00:57:56;;;;;;;18.67;9.43;;;4.60;99.90;;;;;;4990159;28;20101;-70
2023/03/12 01:00:22;;;;;;;16.55;8.77;;;4.60;99.90;;;;;;4989105;28;20034;-70
2023/03/12 01:02:48;;;;;;;12.43;8.50;;;4.70;99.90;;;;;;4989921;28;20050;-70
2023/03/12 01:05:15;;;;;;;14.93;8.38;;;4.70;99.90;;;;;;4990388;28;20034;-70
2023/03/12 01:07:41;;;;;;;16.35;7.88;;;4.80;99.90;;;;;;4990446;28;20517;-71
2023/03/12 01:10:08;;;;;;;16.60;8.50;;;4.80;99.90;;;;;;4989693;28;20010;-70
2023/03/12 01:12:33;;;;;;;12.75;7.07;;;4.80;99.90;;;;;;4990067;28;20032;-70
2023/03/12 01:14:59;;;;;;;18.38;8.18;;;4.80;99.90;;;;;;4989869;28;20030;-71
2023/03/12 01:17:25;;;;;;;14.32;8.63;;;4.80;99.90;;;;;;4990042;28;20050;-71
2023/03/12 01:19:50;;;;;;;16.83;8.20;;;4.80;99.90;;;;;;4989944;28;20042;-70
2023/03/12 01:22:16;;;;;;;14.68;7.85;;;4.80;99.90;;;;;;4988436;28;20033;-71
2023/03/12 01:24:42;;;;;;;14.63;8.15;;;4.70;99.90;;;;;;4989261;28;20027;-70
2023/03/12 01:27:08;;;;;;;15.70;7.50;;;4.70;99.90;;;;;;4990024;28;20034;-70
2023/03/12 01:29:33;;;;;;;15.82;7.60;;;4.80;99.90;;;;;;4988741;28;20026;-71
2023/03/12 01:31:59;;;;;;;14.63;7.80;;;4.90;99.90;;;;;;4989138;28;20525;-70
2023/03/12 01:34:24;;;;;;;20.15;8.20;;;4.90;99.90;;;;;;4989560;28;20037;-71
2023/03/12 01:36:50;;;;;;;18.73;8.57;;;4.90;99.90;;;;;;4990121;28;20026;-70
2023/03/12 01:39:16;;;;;;;13.98;8.00;;;5.00;99.90;;;;;;4989474;28;20022;-70
2023/03/12 01:41:41;;;;;;;16.02;8.30;;;4.90;99.90;;;;;;4990912;28;20026;-70
2023/03/12 01:44:12;;;;;;;15.25;7.35;;;4.90;99.90;;;;;;4993464;28;20031;-70
2023/03/12 01:46:42;;;;;;;18.83;7.43;;;4.90;99.90;;;;;;4992355;28;20022;-70
2023/03/12 01:49:28;;;;;;;17.02;6.95;;;4.90;99.90;;;;;;4992510;28;20038;-70
2023/03/12 01:52:22;;;;;;;11.55;7.25;;;4.90;99.90;;;;;;4992878;28;20482;-70
2023/03/12 01:54:57;;;;;;;17.10;9.05;;;4.80;99.90;;;;;;4991782;28;20491;-70
2023/03/12 01:57:29;;;;;;;15.98;6.75;;;4.90;99.90;;;;;;4993417;28;20023;-70
2023/03/12 02:00:03;;;;;;;13.50;7.70;;;4.90;99.90;;;;;;4993127;28;20041;-69
2023/03/12 02:02:29;;;;;;;15.85;8.15;;;5.00;99.90;;;;;;4991728;28;20022;-70
2023/03/12 02:05:28;;;;;;;20.00;8.75;;;5.00;99.90;;;;;;4992445;28;20099;-71
2023/03/12 02:07:54;;;;;;;16.95;8.65;;;5.00;99.90;;;;;;4970641;28;20047;-71
2023/03/12 02:10:21;;;;;;;17.20;7.63;;;5.00;99.90;;;;;;4978090;28;20136;-70
2023/03/12 02:12:47;;;;;;;15.73;8.75;;;5.00;99.90;;;;;;4992551;28;20167;-70
2023/03/12 02:15:12;;;;;;;14.95;6.30;;;4.90;99.90;;;;;;4975795;28;20097;-70
2023/03/12 02:17:39;;;;;;;18.45;7.75;;;4.80;99.90;;;;;;4992253;28;20034;-70
2023/03/12 02:20:31;;;;;;;13.57;7.75;;;4.80;99.90;;;;;;4990158;28;20031;-70
2023/03/12 02:23:04;;;;;;;15.55;8.43;;;4.90;99.90;;;;;;4972398;28;20034;-70
2023/03/12 02:25:37;;;;;;;16.73;8.48;;;4.90;99.90;;;;;;4980901;28;20068;-70
2023/03/12 02:28:07;;;;;;;11.63;6.82;;;4.80;99.90;;;;;;4981481;28;20388;-69
2023/03/12 02:30:34;;;;;;;14.43;7.03;;;4.80;99.90;;;;;;4973770;28;20195;-70
2023/03/12 02:33:04;;;;;;;13.70;6.75;;;4.90;99.90;;;;;;4985030;28;20125;-69
2023/03/12 02:35:30;;;;;;;14.77;7.05;;;4.80;99.90;;;;;;4991182;28;20030;-69
2023/03/12 02:37:56;;;;;;;13.20;7.72;;;4.80;99.90;;;;;;4992640;28;20072;-69
2023/03/12 02:40:37;;;;;;;13.73;7.32;;;4.90;99.90;;;;;;4992708;28;20022;-71
2023/03/12 02:43:06;;;;;;;13.68;6.80;;;5.00;99.90;;;;;;4991501;28;20034;-71
2023/03/12 02:45:33;;;;;;;11.75;7.05;;;5.10;99.90;;;;;;4992367;28;20018;-71
2023/03/12 02:47:58;;;;;;;15.25;7.05;;;5.10;99.90;;;;;;4990312;28;20096;-70
2023/03/12 02:50:24;;;;;;;11.50;6.20;;;5.10;99.90;;;;;;4990503;28;20475;-70
2023/03/12 02:52:50;;;;;;;13.07;6.93;;;5.10;99.90;;;;;;4990734;28;20049;-70
2023/03/12 02:55:16;;;;;;;16.48;7.10;;;5.10;99.90;;;;;;4991985;28;20067;-70
2023/03/12 02:57:42;;;;;;;10.68;6.75;;;5.10;99.90;;;;;;4985730;28;20050;-70
2023/03/12 03:00:11;;;;;;;12.88;6.63;;;5.10;99.90;;;;;;4978392;28;20387;-70
2023/03/12 03:02:38;;;;;;;15.15;6.40;;;5.10;99.90;;;;;;4991464;28;20040;-70
2023/03/12 03:05:04;;;;;;;8.90;5.63;;;5.10;99.90;;;;;;4990218;28;20037;-70
2023/03/12 03:07:30;;;;;;;14.02;6.28;;;5.10;99.90;;;;;;4991794;28;20068;-70
2023/03/12 03:09:55;;;;;;;15.98;6.47;;;5.10;99.90;;;;;;4973926;28;20607;-70
2023/03/12 03:12:21;;;;;;;13.98;6.53;;;5.10;99.90;;;;;;4992056;28;20033;-70
2023/03/12 03:14:47;;;;;;;10.60;5.60;;;5.10;99.90;;;;;;4990944;28;20046;-70
2023/03/12 03:17:13;;;;;;;10.55;6.30;;;5.00;99.90;;;;;;4990598;28;20030;-69
2023/03/12 03:19:39;;;;;;;15.70;5.47;;;5.10;99.90;;;;;;4991126;28;20031;-69
2023/03/12 03:22:05;;;;;;;10.52;5.20;;;4.90;99.90;;;;;;4991929;28;20481;-70
2023/03/12 03:24:31;;;;;;;8.15;5.07;;;5.00;99.90;;;;;;5004209;28;20038;-70
2023/03/12 03:26:57;;;;;;;12.38;4.82;;;5.00;99.90;;;;;;4980899;28;20031;-70
2023/03/12 03:29:22;;;;;;;12.88;4.97;;;5.00;99.90;;;;;;4979686;28;20050;-70
2023/03/12 03:31:48;;;;;;;9.98;5.00;;;5.00;99.90;;;;;;4971923;28;20019;-70
2023/03/12 03:34:14;;;;;;;9.82;4.95;;;5.00;99.90;;;;;;4984950;28;20031;-70
2023/03/12 03:36:39;;;;;;;7.65;4.63;;;5.00;99.90;;;;;;4991265;28;20137;-70
2023/03/12 03:39:05;;;;;;;8.40;4.30;;;5.00;99.90;;;;;;4991827;28;20106;-70
2023/03/12 03:41:31;;;;;;;10.75;5.15;;;5.00;99.90;;;;;;4991474;28;20483;-70
2023/03/12 03:43:58;;;;;;;10.38;5.05;;;5.00;99.90;;;;;;4991358;28;20022;-70
2023/03/12 03:46:25;;;;;;;11.25;5.15;;;5.10;99.90;;;;;;4990997;28;20061;-70
2023/03/12 03:48:50;;;;;;;11.27;4.90;;;5.10;99.90;;;;;;4991266;28;20479;-70
2023/03/12 03:51:16;;;;;;;10.35;5.00;;;5.00;99.90;;;;;;4990601;28;20105;-70
2023/03/12 03:53:42;;;;;;;16.85;4.97;;;5.10;99.90;;;;;;4972043;28;20030;-70
2023/03/12 03:56:12;;;;;;;13.73;4.65;;;5.20;99.90;;;;;;4988146;28;20027;-70
2023/03/12 03:58:38;;;;;;;12.77;4.70;;;5.20;99.90;;;;;;4990105;28;20031;-70
2023/03/12 04:01:05;;;;;;;13.25;5.05;;;5.20;99.90;;;;;;4991463;28;20117;-70
2023/03/12 04:03:31;;;;;;;7.53;4.60;;;5.10;99.90;;;;;;5006089;28;20026;-70
2023/03/12 04:05:59;;;;;;;13.75;4.93;;;5.10;99.90;;;;;;4990251;28;20035;-70
2023/03/12 04:08:26;;;;;;;9.55;4.55;;;5.10;99.90;;;;;;4990353;28;20410;-69
2023/03/12 04:10:52;;;;;;;12.02;4.15;;;5.20;99.90;;;;;;4991441;28;20026;-69
2023/03/12 04:13:18;;;;;;;12.15;4.28;;;5.20;99.90;;;;;;4991040;28;20034;-69
2023/03/12 04:15:53;;;;;;;10.95;4.30;;;5.20;99.90;;;;;;4971519;28;20399;-69
2023/03/12 04:18:19;;;;;;;6.57;3.55;;;5.10;99.90;;;;;;4971135;28;20023;-69
2023/03/12 04:20:44;;;;;;;9.07;3.90;;;5.10;99.90;;;;;;4971635;28;20042;-69
2023/03/12 04:23:10;;;;;;;6.13;4.10;;;5.10;99.90;;;;;;4971201;28;20110;-69
2023/03/12 04:25:37;;;;;;;7.15;3.90;;;5.20;99.90;;;;;;4980258;28;20050;-69
2023/03/12 04:28:03;;;;;;;12.43;4.13;;;5.20;99.90;;;;;;4990882;28;20038;-69
2023/03/12 04:30:28;;;;;;;8.13;3.95;;;5.20;99.90;;;;;;4989316;28;20068;-69
2023/03/12 04:32:54;;;;;;;12.23;4.10;;;5.20;99.90;;;;;;4989747;28;20572;-69
2023/03/12 04:35:20;;;;;;;14.43;4.30;;;5.20;99.90;;;;;;4990199;28;20418;-70
2023/03/12 04:37:45;;;;;;;11.85;3.40;;;5.30;99.90;;;;;;4990107;28;20477;-70
2023/03/12 04:40:12;;;;;;;15.45;4.60;;;5.20;99.90;;;;;;4989326;28;20019;-69
2023/03/12 04:42:38;;;;;;;10.00;3.95;;;5.30;99.90;;;;;;4990999;28;20030;-70
2023/03/12 04:45:05;;;;;;;18.02;4.78;;;5.30;99.90;;;;;;4989587;28;20536;-70
2023/03/12 04:47:32;;;;;;;6.97;4.28;;;5.30;99.90;;;;;;4990826;28;20042;-69
2023/03/12 04:49:58;;;;;;;11.77;4.25;;;5.20;99.90;;;;;;4990838;28;20486;-69
2023/03/12 04:52:25;;;;;;;11.27;4.72;;;5.20;99.90;;;;;;4985403;28;20035;-69
2023/03/12 04:54:51;;;;;;;13.98;5.40;;;5.20;99.90;;;;;;4989283;28;20522;-70
2023/03/12 04:57:17;;;;;;;9.55;4.72;;;5.20;99.90;;;;;;4990426;28;20034;-70
2023/03/12 04:59:43;;;;;;;12.27;4.85;;;5.30;99.90;;;;;;4988440;28;20029;-69
2023/03/12 05:02:08;;;;;;;11.32;4.63;;;5.20;99.90;;;;;;4990276;28;20520;-69
2023/03/12 05:04:34;;;;;;;8.18;4.35;;;5.20;99.90;;;;;;4990180;28;20019;-70
2023/03/12 05:07:00;;;;;;;14.40;5.28;;;5.30;99.90;;;;;;4990854;28;20034;-69
2023/03/12 05:09:25;;;;;;;10.50;5.35;;;5.40;99.90;;;;;;4989942;28;20026;-69
2023/03/12 05:11:51;;;;;;;11.40;5.57;;;5.30;99.90;;;;;;4990117;28;20038;-69
2023/03/12 05:14:16;;;;;;;12.10;6.00;;;5.10;99.90;;;;;;4988809;28;20026;-69
2023/03/12 05:16:42;;;;;;;11.18;6.13;;;5.10;99.90;;;;;;4989859;28;20031;-69
2023/03/12 05:19:08;;;;;;;14.60;5.93;;;5.10;99.90;;;;;;4989502;28;20137;-70
2023/03/12 05:21:34;;;;;;;13.27;5.60;;;5.10;99.90;;;;;;4988876;28;20045;-70
2023/03/12 05:23:59;;;;;;;13.88;6.22;;;5.00;99.90;;;;;;4990669;28;20101;-69
2023/03/12 05:26:30;;;;;;;12.80;5.70;;;5.00;99.90;;;;;;4989017;28;20493;-69
2023/03/12 05:28:56;;;;;;;12.13;6.22;;;5.10;99.90;;;;;;4989279;28;20111;-70
2023/03/12 05:31:23;;;;;;;15.70;7.47;;;5.00;99.90;;;;;;4989702;28;20019;-69
2023/03/12 05:33:49;;;;;;;20.00;7.55;;;5.10;99.90;;;;;;4990292;28;20529;-70
2023/03/12 05:36:15;;;;;;;12.95;6.53;;;5.00;99.90;;;;;;4983982;28;20014;-70
2023/03/12 05:38:44;;;;;;;19.00;7.47;;;5.10;99.90;;;;;;4989945;28;20042;-69
2023/03/12 05:41:26;;;;;;;24.33;7.60;;;5.00;99.90;;;;;;4990300;28;20027;-70
2023/03/12 05:43:53;;;;;;;19.05;7.60;;;5.00;99.90;;;;;;4988732;28;20497;-70
2023/03/12 05:46:19;;;;;;;16.33;6.65;;;5.10;99.90;;;;;;4987969;28;20057;-70
2023/03/12 05:48:45;;;;;;;13.57;6.80;;;5.20;99.90;;;;;;4989577;28;20034;-70
2023/03/12 05:51:11;;;;;;;19.15;7.20;;;5.30;99.90;;;;;;4990011;28;20038;-70
2023/03/12 05:53:36;;;;;;;17.63;7.13;;;5.30;99.90;;;;;;4989564;28;20022;-70
2023/03/12 05:56:04;;;;;;;18.88;7.40;;;5.20;99.90;;;;;;4988903;28;20027;-70
2023/03/12 05:58:30;;;;;;;9.88;6.25;;;5.20;99.90;;;;;;4989890;28;20038;-69
2023/03/12 06:00:56;;;;;;;13.52;6.35;;;5.20;99.90;;;;;;4989852;28;20378;-70
2023/03/12 06:03:22;;;;;;;15.95;7.63;;;5.10;99.90;;;;;;4989644;28;20029;-69
2023/03/12 06:05:47;;;;;;;15.07;7.45;;;5.00;99.90;;;;;;4989737;28;20127;-70
2023/03/12 06:08:13;;;;;;;14.60;6.47;;;5.10;99.90;;;;;;4988649;28;20057;-70
2023/03/12 06:10:39;;;;;;;14.18;6.95;;;5.20;99.90;;;;;;4988983;28;20022;-70
2023/03/12 06:13:05;;;;;;;13.55;6.63;;;5.10;99.90;;;;;;4989449;28;20026;-70
2023/03/12 06:15:31;;;;;;;15.35;6.78;;;5.20;99.90;;;;;;4989737;28;20494;-70
2023/03/12 06:17:57;;;;;;;19.60;7.05;;;5.30;99.90;;;;;;4989531;28;20031;-70
2023/03/12 06:20:22;;;;;;;12.98;7.30;;;5.40;99.90;;;;;;4989617;28;20037;-72
2023/03/12 06:22:48;;;;;;;12.95;7.35;;;5.50;99.90;;;;;;4987568;28;20096;-71
2023/03/12 06:25:14;;;;;;;12.75;7.00;;;5.50;99.90;;;;;;4987222;28;20463;-71
2023/03/12 06:27:40;;;;;;;19.25;8.13;;;5.60;99.90;;;;;;4987999;28;20523;-71
2023/03/12 06:30:06;;;;;;;16.30;7.70;;;5.50;99.90;;;;;;4990986;28;20028;-73
2023/03/12 06:32:32;;;;;;;15.60;7.35;;;5.60;99.90;;;;;;4992718;28;20026;-73
2023/03/12 06:34:59;;;;;;;13.75;7.15;;;5.60;99.90;;;;;;4992958;28;20101;-71
2023/03/12 06:37:27;;;;;;;21.33;8.15;;;5.60;99.90;;;;;;4992465;28;20034;-72
2023/03/12 06:39:53;;;;;;;21.17;8.15;;;5.60;99.90;;;;;;4992760;28;20026;-70
2023/03/12 06:42:19;;;;;;;17.30;7.60;;;5.60;99.90;;;;;;4992559;28;20026;-70
2023/03/12 06:44:45;;;;;;;13.48;8.05;;;5.60;99.90;;;;;;4991553;28;20375;-73
2023/03/12 06:47:11;;;;;;;14.35;7.80;;;5.70;99.90;;;;;;4990845;28;20043;-72
2023/03/12 06:49:37;;;;;;;15.63;8.23;;;5.70;99.90;;;;;;4992378;28;20037;-73
2023/03/12 06:52:04;;;;;;;16.27;8.45;;;5.70;99.90;;;;;;4992106;28;20057;-73
2023/03/12 06:54:31;;;;;;;20.33;9.63;;;5.80;99.90;;;;;;4992827;28;20031;-72
2023/03/12 06:56:58;;;;;;;20.38;9.85;;;5.80;99.90;;;;;;4990628;28;20033;-72
2023/03/12 06:59:24;;;;;;;20.77;9.40;;;5.90;99.90;;;;;;4991604;28;20171;-73
2023/03/12 07:01:50;;;;;;;17.50;8.27;;;5.90;99.90;;;;;;4989252;28;20109;-73
2023/03/12 07:04:16;;;;;;;13.95;8.27;;;5.90;99.90;;;;;;4991012;28;20685;-72
2023/03/12 07:06:42;;;;;;;18.48;9.15;;;5.90;99.90;;;;;;4990455;28;20480;-73
2023/03/12 07:09:08;;;;;;;18.90;8.98;;;6.00;99.90;;;;;;4991798;28;20069;-73
2023/03/12 07:11:34;;;;;;;18.08;8.40;;;6.00;99.90;;;;;;4991279;28;20164;-71
2023/03/12 07:14:00;;;;;;;19.00;8.82;;;6.00;99.90;;;;;;4991805;28;20105;-71
2023/03/12 07:16:26;;;;;;;18.90;8.70;;;6.00;99.90;;;;;;4992144;28;20026;-72
2023/03/12 07:18:52;;;;;;;20.80;8.35;;;6.00;99.90;;;;;;4991589;28;20034;-72
2023/03/12 07:21:22;;;;;;;16.38;8.52;;;6.10;99.90;;;;;;4991793;28;20040;-72
2023/03/12 07:23:49;;;;;;;18.88;9.82;;;6.10;99.90;;;;;;4990647;28;20075;-73
2023/03/12 07:26:15;;;;;;;22.83;10.38;;;6.10;99.90;;;;;;4990945;28;20026;-72
2023/03/12 07:28:41;;;;;;;20.33;10.48;;;6.10;99.90;;;;;;5074199;28;20049;-72
2023/03/12 07:31:06;;;;;;;18.65;11.40;;;6.20;99.90;;;;;;4991892;28;20026;-71
2023/03/12 07:33:32;;;;;;;17.20;10.13;;;6.20;99.90;;;;;;4991170;28;20031;-72
2023/03/12 07:35:59;;;;;;;23.50;11.85;;;6.20;99.90;;;;;;4992136;28;20498;-71
2023/03/12 07:38:24;;;;;;;23.85;12.35;;;6.20;99.90;;;;;;4990442;28;20427;-72
2023/03/12 07:40:55;;;;;;;19.98;12.32;;;6.20;99.90;;;;;;4991373;28;20026;-71
2023/03/12 07:43:21;;;;;;;18.45;11.98;;;6.30;99.90;;;;;;4991994;28;20033;-71
2023/03/12 07:45:47;;;;;;;23.42;12.55;;;6.30;99.90;;;;;;4991230;28;20027;-71
2023/03/12 07:48:13;;;;;;;20.92;12.25;;;6.20;99.90;;;;;;4990797;28;20034;-71
2023/03/12 07:50:38;;;;;;;27.75;13.55;;;6.30;99.90;;;;;;4991774;28;20027;-72
2023/03/12 07:53:05;;;;;;;22.15;13.43;;;6.30;99.90;;;;;;4990476;28;20458;-71
2023/03/12 07:55:32;;;;;;;23.55;14.00;;;6.30;99.90;;;;;;4988521;28;20022;-72
2023/03/12 07:57:59;;;;;;;25.88;13.85;;;6.30;99.90;;;;;;4982854;28;20037;-71
2023/03/12 08:00:26;;;;;;;28.58;14.25;;;6.40;99.90;;;;;;4985101;28;20064;-70
2023/03/12 08:02:52;;;;;;;23.98;14.15;;;6.50;99.90;;;;;;4976690;28;20073;-72
2023/03/12 08:05:18;;;;;;;27.67;15.27;;;6.50;99.90;;;;;;4991378;28;20050;-72
2023/03/12 08:07:43;;;;;;;29.00;16.35;;;6.50;99.90;;;;;;4971080;28;20035;-71
2023/03/12 08:10:10;;;;;;;25.50;15.43;;;6.60;99.90;;;;;;4971200;28;20137;-71
2023/03/12 08:12:36;;;;;;;26.88;15.55;;;6.70;99.90;;;;;;4976529;28;20027;-71
2023/03/12 08:15:07;;;;;;;25.25;13.88;;;6.70;99.90;;;;;;4985480;28;20627;-71
2023/03/12 08:17:32;;;;;;;30.20;16.77;;;6.80;99.90;;;;;;4982760;28;20030;-72
2023/03/12 08:19:58;;;;;;;24.15;15.77;;;6.90;99.90;;;;;;4980131;28;20037;-70
2023/03/12 08:22:24;;;;;;;31.60;17.27;;;6.90;99.90;;;;;;4979689;28;20398;-69
2023/03/12 08:24:49;;;;;;;26.92;16.95;;;6.90;99.90;;;;;;4990224;28;20018;-70
2023/03/12 08:27:15;;;;;;;27.27;17.30;;;7.00;99.90;;;;;;4989520;28;20368;-70
2023/03/12 08:29:41;;;;;;;38.67;19.65;;;7.00;99.90;;;;;;4984687;28;20092;-72
2023/03/12 08:32:09;;;;;;;30.45;17.02;;;7.00;99.90;;;;;;4989628;28;20105;-69
2023/03/12 08:34:35;;;;;;;27.75;18.23;;;7.10;99.90;;;;;;4989896;28;20398;-68
2023/03/12 08:37:02;;;;;;;28.13;17.33;;;7.10;99.90;;;;;;4990652;28;20029;-68
2023/03/12 08:39:28;;;;;;;30.92;18.52;;;7.20;99.90;;;;;;4987777;28;20529;-68
2023/03/12 08:41:54;;;;;;;32.70;19.48;;;7.20;99.90;;;;;;4979041;28;20034;-69
2023/03/12 08:44:23;;;;;;;32.70;20.65;;;7.20;99.90;;;;;;4988609;28;20596;-70
2023/03/12 08:46:49;;;;;;;34.92;19.67;;;7.30;99.90;;;;;;4989029;28;20379;-68
2023/03/12 08:49:15;;;;;;;36.35;20.42;;;7.40;99.90;;;;;;4990281;28;20026;-69
2023/03/12 08:51:40;;;;;;;42.30;22.52;;;7.30;99.90;;;;;;4990256;28;20038;-70
2023/03/12 08:54:06;;;;;;;42.63;21.63;;;7.40;99.90;;;;;;4990068;28;20030;-69
2023/03/12 08:56:31;;;;;;;33.95;19.13;;;7.50;99.90;;;;;;4990328;28;20030;-70
2023/03/12 08:58:58;;;;;;;45.15;24.90;;;7.50;99.90;;;;;;4990148;28;20502;-69
2023/03/12 09:01:23;;;;;;;43.95;24.27;;;7.50;99.90;;;;;;4990009;28;20057;-69
2023/03/12 09:03:51;;;;;;;47.13;23.67;;;7.70;99.90;;;;;;4989656;28;20030;-69
2023/03/12 09:06:18;;;;;;;45.80;25.25;;;7.70;99.90;;;;;;4990556;28;20379;-69
2023/03/12 09:08:45;;;;;;;54.67;28.80;;;7.70;99.90;;;;;;4990616;28;20026;-69
2023/03/12 09:11:12;;;;;;;60.80;28.35;;;7.80;99.90;;;;;;4988880;28;20417;-69
2023/03/12 09:13:39;;;;;;;54.03;28.33;;;7.80;99.90;;;;;;4990183;28;20018;-69
2023/03/12 09:16:05;;;;;;;59.65;29.90;;;7.90;99.90;;;;;;4984466;28;20030;-69
2023/03/12 09:18:31;;;;;;;63.42;28.88;;;8.00;99.90;;;;;;4973087;28;20026;-69
2023/03/12 09:20:57;;;;;;;58.13;27.30;;;8.00;99.90;;;;;;4969758;28;20035;-69
2023/03/12 09:23:24;;;;;;;66.72;30.27;;;8.10;99.90;;;;;;4972955;28;20021;-69
2023/03/12 09:25:50;;;;;;;61.95;28.52;;;8.20;99.90;;;;;;4988407;28;20056;-69
2023/03/12 09:28:16;;;;;;;70.53;30.83;;;8.20;99.90;;;;;;4989020;28;20038;-70
2023/03/12 09:30:42;;;;;;;69.43;31.83;;;8.40;99.90;;;;;;4989191;28;20031;-69
2023/03/12 09:33:08;;;;;;;65.85;30.67;;;8.40;99.90;;;;;;4978824;28;20022;-69
2023/03/12 09:35:33;;;;;;;75.68;33.67;;;8.50;99.90;;;;;;4980478;28;20030;-70
2023/03/12 09:37:59;;;;;;;68.93;32.55;;;8.60;99.90;;;;;;4991118;28;20459;-69
2023/03/12 09:40:29;;;;;;;78.78;32.60;;;8.70;99.90;;;;;;4985420;28;20064;-69
2023/03/12 09:43:15;;;;;;;74.40;32.40;;;8.80;99.90;;;;;;4984435;28;20505;-70
2023/03/12 09:45:44;;;;;;;76.13;32.00;;;8.80;99.90;;;;;;4982715;28;20071;-72
2023/03/12 09:48:17;;;;;;;64.72;30.00;;;8.90;99.90;;;;;;4978815;28;20035;-74
2023/03/12 09:50:47;;;;;;;74.28;32.80;;;9.00;99.90;;;;;;4992606;28;20017;-71
2023/03/12 09:53:28;;;;;;;80.28;35.97;;;9.10;99.90;;;;;;4987996;28;20026;-70
2023/03/12 09:55:56;;;;;;;88.43;34.42;;;9.10;99.90;;;;;;4982037;28;20054;-70
2023/03/12 09:58:33;;;;;;;76.85;32.03;;;9.20;99.90;;;;;;4982643;28;20019;-70
2023/03/12 10:01:29;;;;;;;74.35;32.45;;;9.30;99.90;;;;;;4978350;28;20368;-69
2023/03/12 10:04:17;;;;;;;84.13;31.33;;;9.40;99.90;;;;;;4986417;28;20109;-70
2023/03/12 10:06:48;;;;;;;73.03;30.50;;;9.40;99.90;;;;;;4986357;28;20109;-69
2023/03/12 10:09:31;;;;;;;69.05;31.40;;;9.50;99.90;;;;;;4982779;28;20037;-70
2023/03/12 10:12:09;;;;;;;79.18;29.65;;;9.50;99.90;;;;;;4986565;28;20019;-70
2023/03/12 10:15:02;;;;;;;82.72;30.48;;;9.50;99.90;;;;;;4983487;28;20054;-70
2023/03/12 10:17:49;;;;;;;83.45;33.40;;;9.60;99.90;;;;;;5003285;28;20050;-70
2023/03/12 10:20:49;;;;;;;81.25;32.45;;;9.60;99.90;;;;;;4984984;28;20042;-70
2023/03/12 10:23:45;;;;;;;70.40;29.70;;;9.70;99.90;;;;;;4983152;28;20487;-69
2023/03/12 10:26:22;;;;;;;89.78;31.70;;;9.70;99.90;;;;;;4986328;28;20485;-71
2023/03/12 10:28:50;;;;;;;92.20;30.27;;;9.80;99.90;;;;;;4985530;28;20191;-71
2023/03/12 10:31:25;;;;;;;92.40;31.52;;;9.90;99.90;;;;;;4983475;28;20064;-72
2023/03/12 10:33:53;;;;;;;80.03;31.05;;;10.00;99.90;;;;;;4982536;28;20053;-71
2023/03/12 10:36:39;;;;;;;87.03;30.40;;;10.10;99.90;;;;;;4980320;28;20430;-72
2023/03/12 10:39:16;;;;;;;97.18;30.17;;;10.10;99.90;;;;;;4987803;28;20042;-71
2023/03/12 10:41:46;;;;;;;93.90;30.95;;;10.20;99.90;;;;;;4987708;28;20023;-71
2023/03/12 10:44:24;;;;;;;76.88;29.52;;;10.20;99.90;;;;;;4998636;28;20035;-71
2023/03/12 10:47:06;;;;;;;92.35;29.50;;;10.30;99.90;;;;;;4997267;28;20066;-72
2023/03/12 10:49:36;;;;;;;;;;;10.40;99.90;;;;;;4989587;28;20054;-72
2023/03/12 10:52:16;;;;;;;70.53;26.52;;;10.40;99.90;;;;;;5000256;28;19914;-73
2023/03/12 10:54:47;;;;;;;86.50;27.73;;;10.50;99.90;;;;;;5029977;28;20031;-72
2023/03/12 10:57:14;;;;;;;98.88;29.15;;;10.50;99.90;;;;;;5093650;28;20023;-72
2023/03/12 10:59:43;;;;;;;90.47;30.08;;;10.60;99.90;;;;;;5037459;28;20027;-72
2023/03/12 11:02:27;;;;;;;81.75;27.63;;;10.70;99.90;;;;;;5094852;28;20020;-72
2023/03/12 11:04:52;;;;;;;75.40;25.70;;;10.80;99.90;;;;;;5093554;28;20028;-72
2023/03/12 11:07:27;;;;;;;69.35;21.83;;;10.90;99.90;;;;;;5005533;28;20045;-72
2023/03/12 11:10:36;;;;;;;82.10;24.35;;;10.90;99.90;;;;;;4991836;28;20022;-73
2023/03/12 11:13:05;;;;;;;71.18;23.00;;;11.00;99.90;;;;;;4989495;28;20042;-73
2023/03/12 11:15:37;;;;;;;68.20;21.10;;;11.20;99.90;;;;;;4984997;28;20015;-71
2023/03/12 11:18:24;;;;;;;59.58;18.60;;;11.20;99.90;;;;;;4990184;28;20367;-71
2023/03/12 11:20:52;;;;;;;61.70;18.73;;;11.20;99.90;;;;;;4983710;28;20117;-71
2023/03/12 11:23:28;;;;;;;51.40;16.15;;;11.30;99.90;;;;;;4983188;28;20058;-72
2023/03/12 11:26:11;;;;;;;58.60;15.50;;;11.30;99.90;;;;;;4984031;28;20500;-72
2023/03/12 11:28:44;;;;;;;53.83;15.75;;;11.40;99.90;;;;;;4992880;28;20030;-71
2023/03/12 11:31:29;;;;;;;;;;;11.30;99.90;;;;;;4982806;28;20030;-73
2023/03/12 11:34:03;;;;;;;53.88;12.48;;;11.40;99.90;;;;;;5004143;28;19997;-72
2023/03/12 11:36:49;;;;;;;61.70;15.32;;;11.40;99.90;;;;;;4982970;28;20018;-72
2023/03/12 11:39:30;;;;;;;55.30;15.07;;;11.50;99.90;;;;;;4982473;28;20061;-72
2023/03/12 11:42:10;;;;;;;50.50;13.77;;;11.60;99.90;;;;;;4984727;28;20109;-72
2023/03/12 11:44:47;;;;;;;49.58;14.73;;;11.60;99.90;;;;;;4990951;28;20429;-71
2023/03/12 11:47:34;;;;;;;43.75;12.82;;;11.70;99.90;;;;;;4996942;28;20025;-72
2023/03/12 11:50:08;;;;;;;44.90;13.45;;;11.70;99.90;;;;;;4987962;28;20039;-72
2023/03/12 11:52:43;;;;;;;47.83;12.57;;;11.90;99.90;;;;;;4984974;28;20034;-73
2023/03/12 11:55:08;;;;;;;33.45;11.20;;;11.90;99.90;;;;;;4978890;28;20058;-72
2023/03/12 11:57:37;;;;;;;50.50;11.32;;;11.90;99.90;;;;;;4983159;28;20466;-72
2023/03/12 12:00:12;;;;;;;44.45;11.07;;;11.90;99.90;;;;;;4982383;28;20023;-72
2023/03/12 12:02:56;;;;;;;45.22;11.00;;;11.90;99.90;;;;;;4982262;28;20019;-72
2023/03/12 12:05:45;;;;;;;37.45;11.20;;;11.90;99.90;;;;;;4994262;28;20473;-72
2023/03/12 12:08:21;;;;;;;42.80;10.88;;;12.00;99.90;;;;;;4991063;28;20042;-72
2023/03/12 12:10:55;;;;;;;49.05;11.23;;;12.00;99.90;;;;;;4989368;28;20030;-72
2023/03/12 12:13:51;;;;;;;39.53;11.25;;;12.10;99.90;;;;;;4987736;28;20109;-73
2023/03/12 12:16:16;;;;;;;46.03;11.10;;;12.30;99.90;;;;;;4982355;28;20027;-73
2023/03/12 12:18:42;;;;;;;50.08;11.52;;;12.50;99.90;;;;;;4981618;28;20101;-73
2023/03/12 12:21:38;;;;;;;48.10;10.65;;;12.70;99.90;;;;;;4986740;28;20042;-73
2023/03/12 12:24:20;;;;;;;46.00;10.57;;;12.70;99.90;;;;;;4990224;28;20552;-72
2023/03/12 12:26:53;;;;;;;41.67;9.95;;;12.70;99.90;;;;;;5072817;28;20070;-73
2023/03/12 12:29:50;;;;;;;35.58;9.00;;;12.80;99.90;;;;;;4989816;28;20045;-73
2023/03/12 12:32:31;;;;;;;39.05;9.52;;;12.70;99.90;;;;;;4990453;28;20037;-72
2023/03/12 12:35:22;;;;;;;37.33;8.43;;;12.70;99.90;;;;;;4989463;28;20026;-72
2023/03/12 12:37:57;;;;;;;42.15;8.07;;;12.60;99.90;;;;;;4988837;28;20019;-73
2023/03/12 12:40:25;;;;;;;51.30;8.93;;;12.70;99.90;;;;;;4990349;28;20030;-75
2023/03/12 12:42:57;;;;;;;45.10;9.10;;;12.70;99.90;;;;;;4989055;28;20033;-76
2023/03/12 12:45:25;;;;;;;39.58;9.05;;;12.80;99.90;;;;;;4986773;28;20036;-73
2023/03/12 12:48:05;;;;;;;36.30;8.40;;;12.80;99.90;;;;;;4989040;28;20096;-72
2023/03/12 12:50:35;;;;;;;32.78;7.55;;;12.80;99.90;;;;;;4988529;28;20061;-72
2023/03/12 12:53:36;;;;;;;37.70;7.53;;;12.90;99.90;;;;;;4989827;28;20475;-72
2023/03/12 12:56:11;;;;;;;38.22;7.93;;;13.00;99.90;;;;;;4990038;28;20402;-72